createdAt,value
2018-08-03T00:00:50.914Z,99.99
2018-08-03T00:01:50.889Z,99.99
2018-08-03T00:02:50.875Z,99.99
2018-08-03T00:03:50.861Z,99.99
2018-08-03T00:04:50.849Z,99.99
2018-08-03T00:05:50.844Z,99.99
2018-08-03T00:06:50.820Z,99.99
2018-08-03T00:07:50.804Z,99.99
2018-08-03T00:08:50.790Z,99.99
2018-08-03T00:09:50.777Z,99.99
2018-08-03T00:10:50.773Z,99.99
2018-08-03T00:11:50.754Z,99.99
2018-08-03T00:12:50.732Z,99.99
2018-08-03T00:13:50.719Z,99.99
2018-08-03T00:14:50.705Z,99.99
2018-08-03T00:15:50.712Z,99.99
2018-08-03T00:16:50.680Z,99.99
2018-08-03T00:17:50.663Z,99.99
2018-08-03T00:18:50.649Z,99.99
2018-08-03T00:19:50.633Z,99.99
2018-08-03T00:20:50.620Z,99.99
2018-08-03T00:21:50.615Z,99.99
2018-08-03T00:22:50.591Z,99.99
2018-08-03T00:23:50.582Z,99.99
2018-08-03T00:24:50.563Z,99.99
2018-08-03T00:25:50.548Z,99.99
2018-08-03T00:26:50.549Z,99.99
2018-08-03T00:27:50.520Z,99.99
2018-08-03T00:28:50.511Z,99.99
2018-08-03T00:29:50.493Z,99.99
2018-08-03T00:30:50.477Z,99.99
2018-08-03T00:31:50.482Z,99.99
2018-08-03T00:32:50.451Z,99.99
2018-08-03T00:33:50.435Z,99.99
2018-08-03T00:34:50.419Z,99.99
2018-08-03T00:35:50.404Z,99.99
2018-08-03T00:36:50.390Z,99.99
2018-08-03T00:37:50.387Z,99.99
2018-08-03T00:38:50.363Z,99.99
2018-08-03T00:39:50.347Z,99.99
2018-08-03T00:40:50.334Z,99.99
2018-08-03T00:41:50.319Z,99.99
2018-08-03T00:42:50.314Z,99.99
2018-08-03T00:43:50.291Z,99.99
2018-08-03T00:44:50.276Z,99.99
2018-08-03T00:45:50.262Z,99.99
2018-08-03T00:46:50.244Z,99.99
2018-08-03T00:47:50.293Z,99.99
2018-08-03T00:48:50.217Z,99.99
2018-08-03T00:49:50.202Z,99.99
2018-08-03T00:50:50.191Z,99.99
2018-08-03T00:51:50.177Z,99.99
2018-08-03T00:52:50.160Z,99.99
2018-08-03T00:53:50.160Z,99.99
2018-08-03T00:54:50.129Z,99.99
2018-08-03T00:55:50.116Z,99.99
2018-08-03T00:56:50.107Z,99.99
2018-08-03T00:57:50.088Z,99.99
2018-08-03T00:58:50.085Z,99.99
2018-08-03T00:59:50.059Z,99.99
2018-08-03T01:00:50.050Z,99.99
2018-08-03T01:01:50.030Z,99.99
2018-08-03T01:02:50.015Z,99.99
2018-08-03T01:03:50.010Z,99.99
2018-08-03T01:04:49.985Z,99.99
2018-08-03T01:05:49.971Z,99.99
2018-08-03T01:06:49.958Z,99.99
2018-08-03T01:07:49.956Z,99.99
2018-08-03T01:08:49.944Z,99.99
2018-08-03T01:09:49.917Z,99.99
2018-08-03T01:10:49.898Z,99.99
2018-08-03T01:11:49.883Z,99.99
2018-08-03T01:12:49.868Z,99.99
2018-08-03T01:13:49.854Z,99.99
2018-08-03T01:14:49.853Z,99.99
2018-08-03T01:15:49.832Z,99.99
2018-08-03T01:16:49.811Z,99.99
2018-08-03T01:17:49.797Z,99.99
2018-08-03T01:18:49.781Z,99.99
2018-08-03T01:19:49.787Z,99.99
2018-08-03T01:20:49.755Z,99.99
2018-08-03T01:21:49.747Z,99.99
2018-08-03T01:22:49.724Z,99.99
2018-08-03T01:23:49.707Z,99.99
2018-08-03T01:24:49.694Z,99.99
2018-08-03T01:25:49.690Z,99.99
2018-08-03T01:26:49.665Z,99.99
2018-08-03T01:27:49.650Z,99.99
2018-08-03T01:28:49.635Z,99.99
2018-08-03T01:29:49.620Z,99.99
2018-08-03T01:30:49.619Z,99.99
2018-08-03T01:31:49.592Z,99.99
2018-08-03T01:32:49.574Z,99.99
2018-08-03T01:33:49.561Z,99.99
2018-08-03T01:34:49.548Z,99.99
2018-08-03T01:35:49.561Z,99.99
2018-08-03T01:36:49.520Z,99.99
2018-08-03T01:37:49.554Z,99.99
2018-08-03T01:38:49.486Z,99.99
2018-08-03T01:39:49.474Z,99.99
2018-08-03T01:40:49.460Z,99.99
2018-08-03T01:41:49.459Z,99.99
2018-08-03T01:42:49.428Z,99.99
2018-08-03T01:43:49.460Z,99.99
2018-08-03T01:44:49.400Z,99.99
2018-08-03T01:45:49.386Z,99.99
2018-08-03T01:46:49.379Z,99.99
2018-08-03T01:47:49.355Z,99.99
2018-08-03T01:48:49.341Z,99.99
2018-08-03T01:49:49.327Z,99.99
2018-08-03T01:50:49.331Z,99.99
2018-08-03T01:51:49.296Z,99.99
2018-08-03T01:52:49.282Z,99.99
2018-08-03T01:53:49.269Z,99.99
2018-08-03T01:54:49.252Z,99.99
2018-08-03T01:55:49.236Z,99.99
2018-08-03T01:56:49.233Z,99.99
2018-08-03T01:57:49.208Z,99.99
2018-08-03T01:58:49.193Z,99.99
2018-08-03T01:59:49.179Z,99.99
2018-08-03T02:00:49.175Z,99.99
2018-08-03T02:01:49.149Z,99.99
2018-08-03T02:02:49.132Z,99.99
2018-08-03T02:03:49.118Z,99.99
2018-08-03T02:04:49.103Z,99.99
2018-08-03T02:05:49.111Z,99.99
2018-08-03T02:06:49.073Z,99.99
2018-08-03T02:07:49.062Z,99.99
2018-08-03T02:08:49.045Z,99.99
2018-08-03T02:09:49.031Z,99.99
2018-08-03T02:10:59.588Z,99.99
2018-08-03T02:11:48.997Z,99.99
2018-08-03T02:12:48.985Z,99.99
2018-08-03T02:13:48.971Z,99.99
2018-08-03T02:14:48.958Z,99.99
2018-08-03T02:15:48.938Z,99.99
2018-08-03T02:16:48.936Z,99.99
2018-08-03T02:17:48.914Z,99.99
2018-08-03T02:18:48.896Z,99.99
2018-08-03T02:19:48.880Z,99.99
2018-08-03T02:20:48.865Z,99.99
2018-08-03T02:21:48.862Z,99.99
2018-08-03T02:22:48.843Z,99.99
2018-08-03T02:23:48.820Z,99.99
2018-08-03T02:24:48.805Z,99.99
2018-08-03T02:25:48.791Z,99.99
2018-08-03T02:26:48.792Z,99.99
2018-08-03T02:27:48.761Z,99.99
2018-08-03T02:28:48.746Z,99.99
2018-08-03T02:29:48.731Z,99.99
2018-08-03T02:30:48.717Z,99.99
2018-08-03T02:31:48.700Z,99.99
2018-08-03T02:32:48.696Z,99.99
2018-08-03T02:33:48.672Z,99.99
2018-08-03T02:34:48.656Z,99.99
2018-08-03T02:35:48.641Z,99.99
2018-08-03T02:36:48.626Z,99.99
2018-08-03T02:37:48.623Z,99.99
2018-08-03T02:38:48.595Z,99.99
2018-08-03T02:39:48.579Z,99.99
2018-08-03T02:40:48.566Z,99.99
2018-08-03T02:41:48.551Z,99.99
2018-08-03T02:42:48.553Z,99.99
2018-08-03T02:43:48.520Z,99.99
2018-08-03T02:44:48.507Z,99.99
2018-08-03T02:45:48.498Z,99.99
2018-08-03T02:46:48.475Z,99.99
2018-08-03T02:47:48.461Z,99.99
2018-08-03T02:48:48.454Z,99.99
2018-08-03T02:49:48.429Z,99.99
2018-08-03T02:50:48.416Z,99.99
2018-08-03T02:51:48.399Z,99.99
2018-08-03T02:52:48.384Z,99.99
2018-08-03T02:53:48.381Z,99.99
2018-08-03T02:54:48.353Z,99.99
2018-08-03T02:55:48.338Z,99.99
2018-08-03T02:56:48.323Z,99.99
2018-08-03T02:57:48.309Z,99.99
2018-08-03T02:58:48.302Z,99.99
2018-08-03T02:59:48.279Z,99.99
2018-08-03T03:00:48.263Z,99.99
2018-08-03T03:01:48.250Z,99.99
2018-08-03T03:02:48.234Z,99.99
2018-08-03T03:03:48.230Z,99.99
2018-08-03T03:04:48.204Z,99.99
2018-08-03T03:05:48.188Z,99.99
2018-08-03T03:06:48.174Z,99.99
2018-08-03T03:07:48.157Z,99.99
2018-08-03T03:08:48.151Z,99.99
2018-08-03T03:09:48.128Z,99.99
2018-08-03T03:10:48.112Z,99.99
2018-08-03T03:11:48.097Z,99.99
2018-08-03T03:12:48.081Z,99.99
2018-08-03T03:13:48.080Z,99.99
2018-08-03T03:14:48.052Z,99.99
2018-08-03T03:15:48.037Z,99.99
2018-08-03T03:16:48.023Z,99.99
2018-08-03T03:17:48.006Z,99.99
2018-08-03T03:18:47.999Z,99.99
2018-08-03T03:19:48.017Z,99.99
2018-08-03T03:20:47.961Z,99.99
2018-08-03T03:21:47.945Z,99.99
2018-08-03T03:22:47.932Z,99.99
2018-08-03T03:23:47.924Z,99.99
2018-08-03T03:24:47.899Z,99.99
2018-08-03T03:25:47.884Z,99.99
2018-08-03T03:26:47.870Z,99.99
2018-08-03T03:27:47.857Z,99.99
2018-08-03T03:28:47.859Z,99.99
2018-08-03T03:29:47.831Z,99.99
2018-08-03T03:30:47.810Z,99.99
2018-08-03T03:31:47.794Z,99.99
2018-08-03T03:32:47.778Z,99.99
2018-08-03T03:33:47.762Z,99.99
2018-08-03T03:34:47.757Z,99.99
2018-08-03T03:35:47.732Z,99.99
2018-08-03T03:36:47.716Z,99.99
2018-08-03T03:37:47.702Z,99.99
2018-08-03T03:38:47.686Z,99.99
2018-08-03T03:39:47.681Z,99.99
2018-08-03T03:40:47.653Z,99.99
2018-08-03T03:41:47.639Z,99.99
2018-08-03T03:42:47.623Z,99.99
2018-08-03T03:43:47.608Z,99.99
2018-08-03T03:44:47.618Z,99.99
2018-08-03T03:45:47.579Z,99.99
2018-08-03T03:46:47.564Z,99.99
2018-08-03T03:47:47.549Z,99.99
2018-08-03T03:48:47.534Z,99.99
2018-08-03T03:49:47.519Z,99.99
2018-08-03T03:50:47.513Z,99.99
2018-08-03T03:51:47.487Z,99.99
2018-08-03T03:52:47.472Z,99.99
2018-08-03T03:53:47.457Z,99.99
2018-08-03T03:54:47.441Z,99.99
2018-08-03T03:55:47.436Z,99.99
2018-08-03T03:56:47.410Z,99.99
2018-08-03T03:57:47.399Z,99.99
2018-08-03T03:58:47.379Z,99.99
2018-08-03T03:59:47.364Z,99.99
2018-08-03T04:00:47.369Z,99.99
2018-08-03T04:01:47.333Z,99.99
2018-08-03T04:02:47.334Z,99.99
2018-08-03T04:03:47.358Z,99.99
2018-08-03T04:04:47.287Z,99.99
2018-08-03T04:05:47.273Z,99.99
2018-08-03T04:06:47.267Z,99.99
2018-08-03T04:07:47.240Z,99.99
2018-08-03T04:08:47.226Z,99.99
2018-08-03T04:09:47.212Z,99.99
2018-08-03T04:10:47.196Z,99.99
2018-08-03T04:11:47.189Z,99.99
2018-08-03T04:12:47.165Z,99.99
2018-08-03T04:13:47.149Z,99.99
2018-08-03T04:14:47.134Z,99.99
2018-08-03T04:15:47.119Z,99.99
2018-08-03T04:16:47.132Z,99.99
2018-08-03T04:17:47.088Z,99.99
2018-08-03T04:18:47.074Z,99.99
2018-08-03T04:19:47.056Z,99.99
2018-08-03T04:20:47.045Z,99.99
2018-08-03T04:21:47.024Z,99.99
2018-08-03T04:22:47.022Z,99.99
2018-08-03T04:23:46.995Z,99.99
2018-08-03T04:24:46.983Z,99.99
2018-08-03T04:25:46.969Z,99.99
2018-08-03T04:26:46.947Z,99.99
2018-08-03T04:27:46.942Z,99.99
2018-08-03T04:28:46.920Z,99.99
2018-08-03T04:29:46.903Z,99.99
2018-08-03T04:30:46.891Z,99.99
2018-08-03T04:31:46.871Z,99.99
2018-08-03T04:32:46.867Z,99.99
2018-08-03T04:33:46.844Z,99.99
2018-08-03T04:34:46.896Z,99.99
2018-08-03T04:35:46.811Z,99.99
2018-08-03T04:36:46.795Z,99.99
2018-08-03T04:37:46.794Z,99.99
2018-08-03T04:38:46.764Z,99.99
2018-08-03T04:39:46.749Z,99.99
2018-08-03T04:40:46.734Z,99.99
2018-08-03T04:41:46.719Z,99.99
2018-08-03T04:42:46.703Z,99.99
2018-08-03T04:43:46.698Z,99.99
2018-08-03T04:44:46.672Z,99.99
2018-08-03T04:45:46.657Z,99.99
2018-08-03T04:46:46.640Z,99.99
2018-08-03T04:47:46.626Z,99.99
2018-08-03T04:48:46.743Z,99.99
2018-08-03T04:49:46.600Z,99.99
2018-08-03T04:50:46.580Z,99.99
2018-08-03T04:51:46.569Z,99.99
2018-08-03T04:52:46.550Z,99.99
2018-08-03T04:53:46.542Z,99.99
2018-08-03T04:54:46.557Z,99.99
2018-08-03T04:55:46.504Z,99.99
2018-08-03T04:56:46.489Z,99.99
2018-08-03T04:57:46.475Z,99.99
2018-08-03T04:58:46.458Z,99.99
2018-08-03T04:59:46.451Z,99.99
2018-08-03T05:00:46.429Z,99.99
2018-08-03T05:01:46.410Z,99.99
2018-08-03T05:02:46.399Z,99.99
2018-08-03T05:03:46.380Z,99.99
2018-08-03T05:04:46.400Z,99.99
2018-08-03T05:05:46.351Z,99.99
2018-08-03T05:06:46.334Z,99.99
2018-08-03T05:07:46.318Z,99.99
2018-08-03T05:08:46.305Z,99.99
2018-08-03T05:09:46.303Z,99.99
2018-08-03T05:10:46.272Z,99.99
2018-08-03T05:11:46.258Z,99.99
2018-08-03T05:12:46.245Z,99.99
2018-08-03T05:13:46.227Z,99.99
2018-08-03T05:14:46.210Z,99.99
2018-08-03T05:15:46.209Z,99.99
2018-08-03T05:16:46.183Z,99.99
2018-08-03T05:17:46.166Z,99.99
2018-08-03T05:18:46.150Z,99.99
2018-08-03T05:19:46.137Z,99.99
2018-08-03T05:20:46.141Z,99.99
2018-08-03T05:21:46.105Z,99.99
2018-08-03T05:22:46.090Z,99.99
2018-08-03T05:23:46.076Z,99.99
2018-08-03T05:24:46.060Z,99.99
2018-08-03T05:25:46.045Z,99.99
2018-08-03T05:26:46.039Z,99.99
2018-08-03T05:27:46.013Z,99.99
2018-08-03T05:28:46.000Z,99.99
2018-08-03T05:29:45.990Z,99.99
2018-08-03T05:30:45.968Z,99.99
2018-08-03T05:31:45.964Z,99.99
2018-08-03T05:32:45.938Z,99.99
2018-08-03T05:33:45.929Z,99.99
2018-08-03T05:34:45.910Z,99.99
2018-08-03T05:35:45.893Z,99.99
2018-08-03T05:36:45.886Z,99.99
2018-08-03T05:37:45.862Z,99.99
2018-08-03T05:38:45.855Z,99.99
2018-08-03T05:39:45.851Z,99.99
2018-08-03T05:40:45.817Z,99.99
2018-08-03T05:41:45.830Z,99.99
2018-08-03T05:42:45.801Z,99.99
2018-08-03T05:43:45.785Z,99.99
2018-08-03T05:44:45.807Z,99.99
2018-08-03T05:45:45.746Z,99.99
2018-08-03T05:46:45.732Z,99.99
2018-08-03T05:47:45.712Z,99.99
2018-08-03T05:48:45.697Z,99.99
2018-08-03T05:49:45.686Z,99.99
2018-08-03T05:50:45.673Z,99.99
2018-08-03T05:51:45.672Z,99.99
2018-08-03T05:52:45.638Z,99.99
2018-08-03T05:53:45.640Z,99.99
2018-08-03T05:54:55.656Z,99.99
2018-08-03T05:55:45.593Z,99.99
2018-08-03T05:56:45.579Z,99.99
2018-08-03T05:57:45.575Z,99.99
2018-08-03T05:58:45.545Z,99.99
2018-08-03T05:59:45.540Z,99.99
2018-08-03T06:00:45.521Z,99.89
2018-08-03T06:01:45.509Z,99.60
2018-08-03T06:02:45.511Z,99.21
2018-08-03T06:03:45.480Z,97.19
2018-08-03T06:04:45.463Z,96.12
2018-08-03T06:05:45.449Z,96.70
2018-08-03T06:06:45.435Z,96.61
2018-08-03T06:07:45.421Z,97.04
2018-08-03T06:08:45.418Z,94.33
2018-08-03T06:09:45.393Z,92.88
2018-08-03T06:10:45.380Z,95.01
2018-08-03T06:11:45.364Z,94.91
2018-08-03T06:12:45.355Z,93.37
2018-08-03T06:13:45.350Z,90.37
2018-08-03T06:14:45.325Z,88.57
2018-08-03T06:15:45.310Z,90.80
2018-08-03T06:16:45.296Z,87.41
2018-08-03T06:17:45.283Z,87.27
2018-08-03T06:18:45.285Z,85.62
2018-08-03T06:19:45.255Z,85.72
2018-08-03T06:20:45.258Z,85.57
2018-08-03T06:21:45.229Z,84.01
2018-08-03T06:22:45.215Z,82.95
2018-08-03T06:23:45.203Z,83.15
2018-08-03T06:24:45.197Z,82.76
2018-08-03T06:25:45.175Z,83.25
2018-08-03T06:26:45.162Z,81.21
2018-08-03T06:27:45.151Z,80.57
2018-08-03T06:28:45.137Z,79.12
2018-08-03T06:29:45.163Z,78.00
2018-08-03T06:30:45.113Z,76.35
2018-08-03T06:31:45.098Z,74.90
2018-08-03T06:32:45.085Z,75.42
2018-08-03T06:33:45.072Z,74.19
2018-08-03T06:34:45.058Z,72.45
2018-08-03T06:35:45.058Z,72.77
2018-08-03T06:36:45.036Z,72.39
2018-08-03T06:37:45.022Z,71.80
2018-08-03T06:38:45.009Z,72.77
2018-08-03T06:39:44.996Z,70.73
2018-08-03T06:40:44.995Z,69.96
2018-08-03T06:41:44.971Z,70.93
2018-08-03T06:42:44.956Z,69.48
2018-08-03T06:43:44.944Z,70.29
2018-08-03T06:44:44.932Z,70.03
2018-08-03T06:45:44.934Z,70.06
2018-08-03T06:46:44.911Z,70.41
2018-08-03T06:47:44.894Z,70.25
2018-08-03T06:48:44.882Z,69.38
2018-08-03T06:49:44.870Z,69.51
2018-08-03T06:50:44.856Z,68.44
2018-08-03T06:51:44.857Z,67.50
2018-08-03T06:52:44.834Z,66.27
2018-08-03T06:53:44.854Z,64.46
2018-08-03T06:54:44.807Z,64.20
2018-08-03T06:55:44.801Z,63.90
2018-08-03T06:56:44.797Z,64.36
2018-08-03T06:57:44.776Z,63.39
2018-08-03T06:58:44.758Z,64.95
2018-08-03T06:59:44.748Z,63.68
2018-08-03T07:00:44.741Z,63.03
2018-08-03T07:01:44.753Z,62.57
2018-08-03T07:02:44.730Z,62.13
2018-08-03T07:03:44.694Z,64.33
2018-08-03T07:04:44.689Z,64.17
2018-08-03T07:05:44.679Z,63.23
2018-08-03T07:06:44.671Z,62.45
2018-08-03T07:07:44.667Z,62.38
2018-08-03T07:08:44.640Z,62.60
2018-08-03T07:09:44.628Z,60.95
2018-08-03T07:10:44.615Z,60.75
2018-08-03T07:11:44.604Z,62.57
2018-08-03T07:12:44.602Z,61.83
2018-08-03T07:13:44.583Z,61.96
2018-08-03T07:14:44.753Z,61.47
2018-08-03T07:15:44.555Z,60.20
2018-08-03T07:16:44.544Z,60.03
2018-08-03T07:17:44.547Z,62.48
2018-08-03T07:18:44.520Z,63.03
2018-08-03T07:19:44.512Z,64.78
2018-08-03T07:20:44.524Z,62.60
2018-08-03T07:21:44.487Z,60.69
2018-08-03T07:22:44.476Z,61.08
2018-08-03T07:23:44.471Z,59.55
2018-08-03T07:24:44.451Z,59.45
2018-08-03T07:25:44.440Z,61.21
2018-08-03T07:26:44.429Z,60.10
2018-08-03T07:27:44.417Z,62.06
2018-08-03T07:28:44.415Z,63.75
2018-08-03T07:29:44.395Z,65.17
2018-08-03T07:30:44.383Z,67.37
2018-08-03T07:31:44.383Z,68.60
2018-08-03T07:32:44.358Z,68.89
2018-08-03T07:33:44.366Z,70.41
2018-08-03T07:34:44.336Z,70.67
2018-08-03T07:35:44.325Z,73.35
2018-08-03T07:36:44.316Z,75.28
2018-08-03T07:37:44.302Z,75.38
2018-08-03T07:38:44.290Z,75.54
2018-08-03T07:39:44.295Z,76.60
2018-08-03T07:40:44.270Z,74.80
2018-08-03T07:41:44.255Z,74.60
2018-08-03T07:42:44.250Z,73.35
2018-08-03T07:43:44.232Z,75.09
2018-08-03T07:44:44.261Z,75.57
2018-08-03T07:45:44.212Z,74.80
2018-08-03T07:46:44.199Z,73.73
2018-08-03T07:47:44.186Z,73.54
2018-08-03T07:48:44.177Z,74.41
2018-08-03T07:49:44.163Z,74.41
2018-08-03T07:50:44.163Z,73.44
2018-08-03T07:51:44.141Z,74.02
2018-08-03T07:52:44.130Z,74.22
2018-08-03T07:53:44.119Z,75.48
2018-08-03T07:54:44.107Z,74.26
2018-08-03T07:55:44.106Z,74.45
2018-08-03T07:56:44.086Z,74.26
2018-08-03T07:57:44.073Z,74.45
2018-08-03T07:58:44.061Z,73.09
2018-08-03T07:59:44.049Z,72.74
2018-08-03T08:00:44.059Z,74.29
2018-08-03T08:01:44.026Z,73.58
2018-08-03T08:02:44.013Z,72.61
2018-08-03T08:03:44.003Z,73.52
2018-08-03T08:04:43.992Z,72.35
2018-08-03T08:05:43.980Z,72.45
2018-08-03T08:06:43.978Z,72.83
2018-08-03T08:07:43.956Z,72.89
2018-08-03T08:08:43.945Z,73.13
2018-08-03T08:09:44.017Z,74.10
2018-08-03T08:10:43.921Z,71.86
2018-08-03T08:11:43.927Z,72.45
2018-08-03T08:12:43.900Z,73.32
2018-08-03T08:13:43.891Z,71.77
2018-08-03T08:14:43.877Z,70.90
2018-08-03T08:15:43.868Z,72.29
2018-08-03T08:16:43.866Z,71.51
2018-08-03T08:17:43.855Z,72.97
2018-08-03T08:18:43.831Z,72.49
2018-08-03T08:19:43.820Z,72.39
2018-08-03T08:20:43.808Z,71.55
2018-08-03T08:21:43.797Z,70.48
2018-08-03T08:22:43.795Z,70.48
2018-08-03T08:23:43.775Z,70.39
2018-08-03T08:24:43.765Z,70.67
2018-08-03T08:25:43.753Z,70.39
2018-08-03T08:26:43.741Z,70.48
2018-08-03T08:27:43.739Z,70.42
2018-08-03T08:28:43.717Z,70.12
2018-08-03T08:29:43.708Z,70.61
2018-08-03T08:30:43.695Z,71.00
2018-08-03T08:31:43.684Z,70.32
2018-08-03T08:32:43.712Z,70.45
2018-08-03T08:33:43.667Z,69.84
2018-08-03T08:34:43.649Z,69.45
2018-08-03T08:35:43.640Z,70.06
2018-08-03T08:36:43.627Z,68.67
2018-08-03T08:37:43.617Z,69.64
2018-08-03T08:38:43.617Z,69.87
2018-08-03T08:39:43.596Z,70.16
2018-08-03T08:40:43.584Z,69.19
2018-08-03T08:41:43.574Z,69.77
2018-08-03T08:42:43.562Z,68.70
2018-08-03T08:43:43.616Z,67.34
2018-08-03T08:44:43.539Z,67.73
2018-08-03T08:45:43.530Z,67.34
2018-08-03T08:46:43.517Z,68.80
2018-08-03T08:47:43.507Z,69.38
2018-08-03T08:48:43.535Z,69.19
2018-08-03T08:49:43.488Z,68.80
2018-08-03T08:50:43.475Z,67.83
2018-08-03T08:51:43.465Z,67.44
2018-08-03T08:52:43.456Z,67.54
2018-08-03T08:53:43.442Z,67.73
2018-08-03T08:54:43.471Z,68.02
2018-08-03T08:55:43.426Z,67.73
2018-08-03T08:56:43.408Z,68.12
2018-08-03T08:57:43.398Z,67.63
2018-08-03T08:58:43.388Z,68.05
2018-08-03T08:59:43.427Z,66.21
2018-08-03T09:00:53.758Z,66.31
2018-08-03T09:01:43.358Z,65.82
2018-08-03T09:02:43.342Z,66.50
2018-08-03T09:03:43.341Z,66.02
2018-08-03T09:04:43.337Z,66.31
2018-08-03T09:05:43.310Z,66.44
2018-08-03T09:06:43.309Z,65.27
2018-08-03T09:07:43.362Z,65.95
2018-08-03T09:08:43.280Z,65.37
2018-08-03T09:09:43.284Z,65.50
2018-08-03T09:10:43.258Z,65.98
2018-08-03T09:11:43.250Z,65.40
2018-08-03T09:12:43.247Z,64.62
2018-08-03T09:13:43.227Z,64.72
2018-08-03T09:14:43.213Z,65.20
2018-08-03T09:15:43.216Z,64.81
2018-08-03T09:16:43.195Z,63.29
2018-08-03T09:17:43.184Z,63.26
2018-08-03T09:18:43.189Z,63.19
2018-08-03T09:19:43.162Z,62.80
2018-08-03T09:20:43.163Z,65.53
2018-08-03T09:21:43.145Z,62.70
2018-08-03T09:22:43.130Z,61.63
2018-08-03T09:23:43.122Z,62.70
2018-08-03T09:24:43.169Z,62.32
2018-08-03T09:25:43.114Z,63.09
2018-08-03T09:26:43.089Z,63.12
2018-08-03T09:27:43.079Z,61.57
2018-08-03T09:28:43.070Z,61.86
2018-08-03T09:29:43.060Z,61.57
2018-08-03T09:30:43.049Z,62.63
2018-08-03T09:31:43.052Z,62.05
2018-08-03T09:32:43.032Z,62.05
2018-08-03T09:33:43.019Z,61.27
2018-08-03T09:34:43.013Z,61.66
2018-08-03T09:35:42.996Z,61.18
2018-08-03T09:36:42.994Z,61.47
2018-08-03T09:37:42.976Z,61.76
2018-08-03T09:38:42.966Z,60.62
2018-08-03T09:39:42.957Z,60.42
2018-08-03T09:40:42.993Z,60.52
2018-08-03T09:41:42.957Z,60.85
2018-08-03T09:42:42.925Z,61.53
2018-08-03T09:43:42.918Z,60.65
2018-08-03T09:44:42.919Z,59.19
2018-08-03T09:45:42.896Z,60.39
2018-08-03T09:46:42.895Z,59.51
2018-08-03T09:47:42.875Z,60.10
2018-08-03T09:48:42.866Z,57.56
2018-08-03T09:49:42.856Z,57.36
2018-08-03T09:50:42.846Z,58.24
2018-08-03T09:51:42.876Z,58.34
2018-08-03T09:52:42.826Z,58.86
2018-08-03T09:53:42.817Z,60.22
2018-08-03T09:54:42.806Z,58.86
2018-08-03T09:55:42.796Z,58.95
2018-08-03T09:56:42.787Z,58.56
2018-08-03T09:57:42.792Z,58.27
2018-08-03T09:58:42.768Z,57.78
2018-08-03T09:59:42.760Z,57.78
2018-08-03T10:00:42.748Z,56.32
2018-08-03T10:01:42.794Z,56.90
2018-08-03T10:02:42.740Z,57.39
2018-08-03T10:03:42.718Z,57.81
2018-08-03T10:04:42.711Z,57.49
2018-08-03T10:05:42.701Z,55.86
2018-08-03T10:06:42.689Z,56.35
2018-08-03T10:07:42.706Z,56.15
2018-08-03T10:08:42.671Z,56.18
2018-08-03T10:09:42.664Z,55.49
2018-08-03T10:10:42.652Z,55.59
2018-08-03T10:11:42.644Z,55.49
2018-08-03T10:12:42.685Z,55.81
2018-08-03T10:13:42.640Z,54.64
2018-08-03T10:14:42.614Z,54.54
2018-08-03T10:15:42.612Z,54.81
2018-08-03T10:16:42.595Z,56.10
2018-08-03T10:17:42.587Z,54.83
2018-08-03T10:18:42.587Z,53.49
2018-08-03T10:19:42.568Z,52.12
2018-08-03T10:20:42.558Z,53.88
2018-08-03T10:21:42.548Z,53.20
2018-08-03T10:22:42.540Z,53.37
2018-08-03T10:23:42.552Z,52.69
2018-08-03T10:24:42.521Z,53.47
2018-08-03T10:25:42.512Z,53.56
2018-08-03T10:26:42.505Z,52.78
2018-08-03T10:27:42.496Z,53.00
2018-08-03T10:28:42.484Z,54.69
2018-08-03T10:29:42.529Z,53.23
2018-08-03T10:30:42.465Z,53.72
2018-08-03T10:31:42.458Z,53.03
2018-08-03T10:32:42.454Z,52.44
2018-08-03T10:33:42.438Z,51.95
2018-08-03T10:34:51.321Z,50.76
2018-08-03T10:35:42.418Z,50.49
2018-08-03T10:36:42.408Z,50.88
2018-08-03T10:37:42.400Z,50.39
2018-08-03T10:38:42.391Z,51.76
2018-08-03T10:39:42.392Z,51.37
2018-08-03T10:40:42.376Z,50.49
2018-08-03T10:41:42.366Z,51.20
2018-08-03T10:42:42.364Z,50.61
2018-08-03T10:43:42.346Z,51.03
2018-08-03T10:44:42.355Z,50.63
2018-08-03T10:45:42.330Z,50.27
2018-08-03T10:46:42.323Z,49.31
2018-08-03T10:47:42.309Z,48.99
2018-08-03T10:48:42.378Z,48.01
2018-08-03T10:49:42.297Z,48.80
2018-08-03T10:50:42.294Z,48.60
2018-08-03T10:51:42.276Z,48.72
2018-08-03T10:52:42.267Z,47.84
2018-08-03T10:53:42.259Z,48.63
2018-08-03T10:54:42.258Z,47.45
2018-08-03T10:55:42.241Z,47.55
2018-08-03T10:56:42.232Z,47.45
2018-08-03T10:57:42.223Z,48.16
2018-08-03T10:58:42.213Z,48.74
2018-08-03T10:59:42.221Z,48.35
2018-08-03T11:00:42.197Z,47.74
2018-08-03T11:01:42.215Z,47.74
2018-08-03T11:02:42.182Z,48.92
2018-08-03T11:03:42.179Z,47.64
2018-08-03T11:04:42.162Z,47.84
2018-08-03T11:05:42.170Z,47.84
2018-08-03T11:06:42.196Z,48.35
2018-08-03T11:07:42.140Z,47.17
2018-08-03T11:08:42.130Z,48.06
2018-08-03T11:09:42.122Z,47.20
2018-08-03T11:10:42.128Z,46.53
2018-08-03T11:11:42.105Z,46.73
2018-08-03T11:12:42.099Z,45.36
2018-08-03T11:13:42.126Z,44.81
2018-08-03T11:14:42.078Z,44.83
2018-08-03T11:15:42.086Z,43.68
2018-08-03T11:16:42.063Z,42.61
2018-08-03T11:17:42.059Z,42.52
2018-08-03T11:18:42.049Z,42.54
2018-08-03T11:19:42.041Z,41.33
2018-08-03T11:20:42.032Z,41.67
2018-08-03T11:21:42.035Z,41.94
2018-08-03T11:22:42.016Z,41.47
2018-08-03T11:23:42.007Z,40.13
2018-08-03T11:24:41.999Z,40.25
2018-08-03T11:25:41.991Z,40.45
2018-08-03T11:26:41.996Z,40.33
2018-08-03T11:27:41.974Z,41.39
2018-08-03T11:28:41.968Z,41.08
2018-08-03T11:29:42.023Z,40.01
2018-08-03T11:30:41.950Z,41.00
2018-08-03T11:31:41.956Z,40.11
2018-08-03T11:32:41.934Z,40.05
2018-08-03T11:33:41.932Z,40.41
2018-08-03T11:34:41.920Z,39.64
2018-08-03T11:35:41.912Z,39.56
2018-08-03T11:36:41.912Z,38.69
2018-08-03T11:37:41.895Z,38.79
2018-08-03T11:38:41.902Z,38.69
2018-08-03T11:39:41.881Z,38.49
2018-08-03T11:40:41.889Z,37.84
2018-08-03T11:41:41.875Z,38.73
2018-08-03T11:42:41.857Z,39.12
2018-08-03T11:43:41.850Z,37.34
2018-08-03T11:44:41.843Z,38.61
2018-08-03T11:45:41.835Z,39.42
2018-08-03T11:46:41.837Z,39.34
2018-08-03T11:47:41.817Z,38.95
2018-08-03T11:48:41.810Z,38.57
2018-08-03T11:49:51.865Z,38.00
2018-08-03T11:50:41.795Z,38.04
2018-08-03T11:51:41.800Z,36.87
2018-08-03T11:52:41.779Z,36.47
2018-08-03T11:53:41.775Z,36.08
2018-08-03T11:54:41.762Z,36.25
2018-08-03T11:55:41.754Z,36.91
2018-08-03T11:56:41.760Z,37.59
2018-08-03T11:57:41.741Z,37.49
2018-08-03T11:58:41.734Z,38.16
2018-08-03T11:59:41.725Z,37.41
2018-08-03T12:00:41.722Z,38.82
2018-08-03T12:01:41.723Z,36.77
2018-08-03T12:02:41.704Z,36.51
2018-08-03T12:03:41.694Z,36.19
2018-08-03T12:04:41.687Z,35.40
2018-08-03T12:05:41.683Z,36.10
2018-08-03T12:06:41.683Z,35.58
2018-08-03T12:07:41.671Z,36.27
2018-08-03T12:08:41.659Z,35.09
2018-08-03T12:09:41.653Z,36.71
2018-08-03T12:10:41.644Z,33.98
2018-08-03T12:11:41.648Z,35.17
2018-08-03T12:12:41.631Z,35.16
2018-08-03T12:13:41.648Z,34.40
2018-08-03T12:14:41.614Z,34.50
2018-08-03T12:15:41.607Z,34.80
2018-08-03T12:16:41.612Z,33.52
2018-08-03T12:17:41.595Z,34.00
2018-08-03T12:18:41.586Z,34.30
2018-08-03T12:19:41.581Z,34.13
2018-08-03T12:20:41.571Z,34.22
2018-08-03T12:21:41.580Z,34.43
2018-08-03T12:22:41.560Z,35.14
2018-08-03T12:23:41.584Z,35.89
2018-08-03T12:24:41.548Z,34.22
2018-08-03T12:25:41.539Z,34.05
2018-08-03T12:26:51.433Z,35.12
2018-08-03T12:27:41.529Z,35.70
2018-08-03T12:28:41.512Z,35.57
2018-08-03T12:29:41.512Z,35.24
2018-08-03T12:30:41.504Z,35.57
2018-08-03T12:31:41.551Z,35.21
2018-08-03T12:32:41.502Z,34.61
2018-08-03T12:33:41.481Z,34.92
2018-08-03T12:34:41.472Z,34.58
2018-08-03T12:35:41.467Z,34.81
2018-08-03T12:36:41.461Z,35.09
2018-08-03T12:37:41.463Z,35.33
2018-08-03T12:38:41.446Z,34.69
2018-08-03T12:39:41.443Z,35.30
2018-08-03T12:40:41.432Z,34.01
2018-08-03T12:41:41.426Z,33.26
2018-08-03T12:42:41.431Z,33.45
2018-08-03T12:43:41.413Z,33.29
2018-08-03T12:44:41.409Z,33.87
2018-08-03T12:45:41.399Z,33.40
2018-08-03T12:46:41.392Z,33.64
2018-08-03T12:47:41.385Z,33.06
2018-08-03T12:48:41.388Z,31.60
2018-08-03T12:49:41.368Z,33.40
2018-08-03T12:50:41.423Z,32.36
2018-08-03T12:51:41.412Z,32.48
2018-08-03T12:52:41.474Z,30.69